createdAt,value
2023-04-23T00:01:59.030Z,34.33
2023-04-23T00:12:02.057Z,35.03
2023-04-23T00:22:04.262Z,36.83
2023-04-23T00:32:06.799Z,40.00
2023-04-23T00:42:12.820Z,37.93
2023-04-23T00:52:14.901Z,40.92
2023-04-23T01:02:17.663Z,43.43
2023-04-23T01:12:19.821Z,42.73
2023-04-23T01:22:21.937Z,41.07
2023-04-23T01:32:24.581Z,41.97
2023-04-23T01:42:26.978Z,36.53
2023-04-23T01:52:29.225Z,29.83
2023-04-23T02:02:31.539Z,27.57
2023-04-23T02:12:34.097Z,29.40
2023-04-23T02:22:41.862Z,30.15
2023-04-23T02:32:44.210Z,25.97
2023-04-23T02:42:46.417Z,24.53
2023-04-23T02:52:49.730Z,26.98
2023-04-23T03:02:52.195Z,23.93
2023-04-23T03:12:54.529Z,26.80
2023-04-23T03:22:57.258Z,25.87
2023-04-23T03:32:59.631Z,24.03
2023-04-23T03:43:01.876Z,22.67
2023-04-23T03:53:35.716Z,24.10
2023-04-23T04:04:03.771Z,22.85
2023-04-23T04:14:08.417Z,25.03
2023-04-23T04:24:11.563Z,25.40
2023-04-23T04:34:14.787Z,23.80
2023-04-23T04:44:17.290Z,21.67
2023-04-23T04:54:19.370Z,19.90
2023-04-23T05:04:21.515Z,19.98
2023-04-23T05:14:25.981Z,20.35
2023-04-23T05:24:28.028Z,19.10
2023-04-23T05:34:30.187Z,17.27
2023-04-23T05:44:32.252Z,15.40
2023-04-23T05:54:34.402Z,16.77
2023-04-23T06:04:37.632Z,12.03
2023-04-23T06:14:40.317Z,12.60
2023-04-23T06:24:43.166Z,11.18
2023-04-23T06:34:59.552Z,14.40
2023-04-23T06:45:06.177Z,10.40
2023-04-23T06:55:09.044Z,12.98
2023-04-23T07:05:11.321Z,9.05
2023-04-23T07:15:13.411Z,8.07
2023-04-23T07:25:15.610Z,8.55
2023-04-23T07:35:17.891Z,8.07
2023-04-23T07:45:20.050Z,8.80
2023-04-23T07:55:22.158Z,9.45
2023-04-23T08:05:24.415Z,6.97
2023-04-23T08:15:26.879Z,5.20
2023-04-23T08:25:28.953Z,5.15
2023-04-23T08:35:31.112Z,3.80
2023-04-23T08:45:34.734Z,5.10
2023-04-23T08:55:36.951Z,3.65
2023-04-23T09:05:39.351Z,4.65
2023-04-23T09:15:43.656Z,3.78
2023-04-23T09:25:45.805Z,2.55
2023-04-23T09:35:48.726Z,3.85
2023-04-23T09:45:50.945Z,2.63
2023-04-23T09:55:53.120Z,3.10
2023-04-23T10:06:01.832Z,3.00
2023-04-23T10:16:18.145Z,4.43
2023-04-23T10:26:24.785Z,4.35
2023-04-23T10:36:27.712Z,3.83
2023-04-23T10:46:31.432Z,1.17
2023-04-23T10:56:33.698Z,4.15
2023-04-23T11:06:47.840Z,1.95
2023-04-23T11:16:50.289Z,1.90
2023-04-23T11:26:55.722Z,2.90
2023-04-23T11:36:59.785Z,3.60
2023-04-23T11:47:03.546Z,3.15
2023-04-23T11:57:09.996Z,3.03
2023-04-23T12:07:25.834Z,2.10
2023-04-23T12:17:29.220Z,1.35
2023-04-23T12:27:33.668Z,2.17
2023-04-23T12:37:37.612Z,0.95
2023-04-23T12:47:40.238Z,1.45
2023-04-23T12:57:42.393Z,4.63
2023-04-23T13:07:44.508Z,3.17
2023-04-23T13:17:46.768Z,1.38
2023-04-23T13:27:48.904Z,3.15
2023-04-23T13:37:51.112Z,0.82
2023-04-23T13:47:53.282Z,2.67
2023-04-23T13:57:58.125Z,0.50
2023-04-23T14:08:00.584Z,0.55
2023-04-23T14:18:02.896Z,1.75
2023-04-23T14:28:24.856Z,1.00
2023-04-23T14:38:27.025Z,1.35
2023-04-23T14:48:29.590Z,2.17
2023-04-23T14:58:31.711Z,1.92
2023-04-23T15:08:33.987Z,1.70
2023-04-23T15:18:36.133Z,1.70
2023-04-23T15:28:38.257Z,1.58
2023-04-23T15:38:40.402Z,1.42
2023-04-23T15:48:42.533Z,1.35
2023-04-23T15:58:44.601Z,1.67
2023-04-23T16:08:46.810Z,2.13
2023-04-23T16:18:49.423Z,1.08
2023-04-23T16:29:05.420Z,0.40
2023-04-23T16:39:14.145Z,0.60
2023-04-23T16:49:16.298Z,0.45
2023-04-23T16:59:18.812Z,0.85
2023-04-23T17:09:21.279Z,0.68
2023-04-23T17:19:23.466Z,1.92
2023-04-23T17:29:25.889Z,1.20
2023-04-23T17:39:28.335Z,2.90
2023-04-23T17:49:30.785Z,2.80
2023-04-23T17:59:33.356Z,3.67
2023-04-23T18:09:36.347Z,1.27
2023-04-23T18:19:39.794Z,1.88
2023-04-23T18:29:42.127Z,3.30
2023-04-23T18:39:44.432Z,4.50
2023-04-23T18:49:52.838Z,3.00
2023-04-23T18:59:55.118Z,1.73
2023-04-23T19:09:57.204Z,2.33
2023-04-23T19:19:59.361Z,0.95
2023-04-23T19:30:01.947Z,3.17
2023-04-23T19:40:04.857Z,1.93
2023-04-23T19:50:07.655Z,0.75
2023-04-23T20:00:14.123Z,1.93
2023-04-23T20:10:17.518Z,0.60
2023-04-23T20:20:21.580Z,0.77
2023-04-23T20:30:23.852Z,0.77
2023-04-23T20:40:26.078Z,1.37
2023-04-23T20:50:28.231Z,1.92
2023-04-23T21:00:30.984Z,0.77
2023-04-23T21:10:33.353Z,1.45
2023-04-23T21:20:36.475Z,0.10
2023-04-23T21:30:46.682Z,0.20
2023-04-23T21:40:48.868Z,0.40
2023-04-23T21:50:51.652Z,0.75
2023-04-23T22:00:54.431Z,0.68
2023-04-23T22:10:56.634Z,0.60
2023-04-23T22:20:58.708Z,0.28
2023-04-23T22:31:01.360Z,0.20
2023-04-23T22:41:03.444Z,0.07
2023-04-23T22:51:05.607Z,0.38
2023-04-23T23:01:07.832Z,0.40
2023-04-23T23:11:09.976Z,0.57
2023-04-23T23:21:12.085Z,1.70
2023-04-23T23:31:14.502Z,1.40
2023-04-23T23:41:16.598Z,0.33
2023-04-23T23:51:18.752Z,1.00
